Chance, South Dakota
Current Conditions -  °F | °C
As of 3:53 PM on Thursday 25 Dec 2014 (Local Time) from KHEI Reporting Station
Overcast Overcast  
Wind Chill:   Ceiling: 1100
Heat Index: 23°   Visibility: 10mi
Dew Point: 18°   Wind: 20mph
Humidity: 81%   Direction: 340°NNW
Pressure: 29.89"   Gusts: 24mph
Location:  45.5161°N, 102.519°W
Report Text: KHEI 252253Z AUTO 34017G21KT 10SM OVC011 M05/M08 A2989 RMK AO2 SLP154 T10501078
Loading
Personal Weather Stations






























Interactive Weather Map New forecast layout! Learn more

10-Day Weather Forecast

Advertisements
Track Severe Weather on mobile